Time;durP1;ratioP1;P1;durP2;ratioP2;P2;SDS_P1;SDS_P2;PMS_P1;PMS_P2;Temp;Humidity;BMP_temperature;BMP_pressure;BME280_temperature;BME280_humidity;BME280_pressure;Samples;Min_cycle;Max_cycle;Signal;HPM_P1;HPM_P2
2022/10/21 00:02:17;;;;;;;24.63;15.30;;;13.50;99.90;;;;;;5094553;28;20673;-50
2022/10/21 00:04:43;;;;;;;28.60;17.77;;;13.50;99.90;;;;;;5094248;28;20209;-51
2022/10/21 00:07:08;;;;;;;28.48;17.75;;;13.50;99.90;;;;;;5094140;28;20170;-51
2022/10/21 00:09:34;;;;;;;30.52;17.00;;;13.50;99.90;;;;;;5094280;28;20174;-51
2022/10/21 00:12:00;;;;;;;26.08;16.65;;;13.50;99.90;;;;;;5094170;28;20161;-51
2022/10/21 00:14:25;;;;;;;27.13;17.05;;;13.40;99.90;;;;;;5094470;28;20165;-51
2022/10/21 00:16:51;;;;;;;28.15;16.88;;;13.40;99.90;;;;;;5094106;28;20212;-51
2022/10/21 00:19:16;;;;;;;27.35;16.73;;;13.40;99.90;;;;;;5094045;28;20177;-51
2022/10/21 00:21:42;;;;;;;28.73;17.42;;;13.30;99.90;;;;;;5094014;28;20158;-51
2022/10/21 00:24:08;;;;;;;32.35;17.77;;;13.30;99.90;;;;;;5094153;28;20528;-51
2022/10/21 00:26:34;;;;;;;29.88;17.05;;;13.30;99.90;;;;;;5094127;28;20365;-51
2022/10/21 00:28:59;;;;;;;33.35;18.55;;;13.20;99.90;;;;;;5093869;28;20685;-50
2022/10/21 00:31:25;;;;;;;29.55;18.45;;;13.30;99.90;;;;;;5093949;28;20201;-51
2022/10/21 00:33:51;;;;;;;31.13;17.65;;;13.30;99.90;;;;;;5093322;28;20162;-51
2022/10/21 00:36:17;;;;;;;29.70;18.45;;;13.30;99.90;;;;;;5093893;28;20176;-50
2022/10/21 00:38:47;;;;;;;28.98;17.90;;;13.20;99.90;;;;;;5093728;28;20165;-51
2022/10/21 00:41:14;;;;;;;29.33;18.05;;;13.10;99.90;;;;;;5093713;28;20206;-52
2022/10/21 00:43:59;;;;;;;28.13;17.60;;;13.10;99.90;;;;;;5093907;28;20176;-51
2022/10/21 00:46:28;;;;;;;31.80;17.92;;;13.10;99.90;;;;;;5093959;28;20637;-50
2022/10/21 00:48:58;;;;;;;32.75;16.40;;;13.10;99.90;;;;;;5093919;28;20196;-51
2022/10/21 00:51:24;;;;;;;28.77;17.65;;;13.10;99.90;;;;;;5093807;28;20299;-52
2022/10/21 00:53:50;;;;;;;28.20;17.63;;;13.10;99.90;;;;;;5093363;28;20248;-51
2022/10/21 00:56:23;;;;;;;38.17;18.83;;;13.00;99.90;;;;;;5093351;28;20166;-52
2022/10/21 00:58:50;;;;;;;29.95;18.10;;;13.00;99.90;;;;;;5093269;28;20217;-51
2022/10/21 01:01:15;;;;;;;32.33;18.70;;;13.00;99.90;;;;;;5093225;28;20318;-50
2022/10/21 01:03:41;;;;;;;37.83;19.38;;;13.10;99.90;;;;;;5075036;28;20251;-51
2022/10/21 01:06:09;;;;;;;40.53;19.30;;;13.10;99.90;;;;;;5093122;28;20212;-51
2022/10/21 01:08:35;;;;;;;38.67;18.88;;;13.10;99.90;;;;;;5093153;28;20165;-52
2022/10/21 01:11:02;;;;;;;37.35;20.25;;;13.10;99.90;;;;;;5093082;28;20214;-52
2022/10/21 01:13:45;;;;;;;39.58;21.83;;;13.10;99.90;;;;;;5093102;28;20165;-51
2022/10/21 01:16:29;;;;;;;38.22;20.88;;;13.10;99.90;;;;;;5092927;28;20256;-52
2022/10/21 01:19:00;;;;;;;41.40;20.98;;;13.00;99.90;;;;;;5093205;28;20161;-52
2022/10/21 01:21:41;;;;;;;38.03;20.50;;;13.00;99.90;;;;;;5093224;28;20633;-52
2022/10/21 01:24:27;;;;;;;41.72;21.10;;;13.00;99.90;;;;;;5092680;28;20165;-51
2022/10/21 01:27:16;;;;;;;36.30;20.15;;;13.00;99.90;;;;;;5093171;28;20659;-51
2022/10/21 01:30:09;;;;;;;43.80;22.35;;;13.00;99.90;;;;;;5092727;28;20200;-51
2022/10/21 01:32:46;;;;;;;42.85;21.85;;;13.00;99.90;;;;;;5092702;28;20240;-52
2022/10/21 01:35:23;;;;;;;44.58;22.50;;;12.90;99.90;;;;;;5092582;28;20189;-51
2022/10/21 01:38:07;;;;;;;45.58;21.58;;;12.90;99.90;;;;;;5092643;28;20169;-51
2022/10/21 01:40:33;;;;;;;47.60;23.17;;;12.90;99.90;;;;;;5092593;28;20179;-51
2022/10/21 01:43:27;;;;;;;45.08;22.98;;;12.90;99.90;;;;;;5092492;28;20248;-50
2022/10/21 01:45:59;;;;;;;48.40;23.08;;;12.90;99.90;;;;;;5092792;28;20213;-51
2022/10/21 01:48:30;;;;;;;41.10;20.92;;;13.00;99.90;;;;;;5092995;28;20531;-53
2022/10/21 01:50:59;;;;;;;48.95;24.23;;;13.00;99.90;;;;;;5092771;28;20548;-52
2022/10/21 01:53:28;;;;;;;47.10;23.90;;;13.00;99.90;;;;;;5092609;28;20169;-53
2022/10/21 01:55:56;;;;;;;41.20;21.23;;;12.90;99.90;;;;;;5092722;28;20170;-51
2022/10/21 01:58:26;;;;;;;39.38;21.70;;;13.00;99.90;;;;;;5092297;28;20213;-51
2022/10/21 02:00:55;;;;;;;41.30;21.80;;;13.00;99.90;;;;;;5092271;28;20214;-52
2022/10/21 02:03:28;;;;;;;38.67;20.50;;;13.00;99.90;;;;;;5092153;28;20613;-51
2022/10/21 02:05:54;;;;;;;40.72;21.13;;;13.00;99.90;;;;;;5092406;28;20208;-51
2022/10/21 02:08:20;;;;;;;42.45;20.38;;;13.00;99.90;;;;;;5092108;28;20166;-52
2022/10/21 02:10:49;;;;;;;37.80;21.02;;;13.00;99.90;;;;;;5092065;28;20165;-52
2022/10/21 02:13:25;;;;;;;44.13;20.70;;;13.00;99.90;;;;;;5073878;28;20169;-52
2022/10/21 02:15:58;;;;;;;36.63;20.33;;;13.00;99.90;;;;;;5091934;28;20172;-51
2022/10/21 02:18:25;;;;;;;37.38;21.58;;;13.00;99.90;;;;;;5092268;28;20161;-51
2022/10/21 02:20:55;;;;;;;34.22;19.95;;;13.00;99.90;;;;;;5092207;28;20526;-52
2022/10/21 02:23:28;;;;;;;32.92;19.90;;;13.00;99.90;;;;;;5092151;28;20532;-52
2022/10/21 02:25:54;;;;;;;34.55;19.52;;;13.00;99.90;;;;;;5092150;28;20201;-51
2022/10/21 02:28:20;;;;;;;33.58;17.77;;;12.90;99.90;;;;;;5091802;28;20173;-51
2022/10/21 02:31:09;;;;;;;32.33;17.52;;;12.90;99.90;;;;;;5091823;28;20169;-51
2022/10/21 02:33:41;;;;;;;33.80;18.63;;;12.90;99.90;;;;;;5091810;28;20193;-51
2022/10/21 02:36:26;;;;;;;31.50;16.55;;;12.90;99.90;;;;;;5091885;28;20169;-50
2022/10/21 02:38:57;;;;;;;27.52;16.85;;;12.80;99.90;;;;;;5092258;28;20176;-50
2022/10/21 02:41:24;;;;;;;33.40;16.08;;;12.80;99.90;;;;;;5092239;28;20244;-50
2022/10/21 02:43:56;;;;;;;30.60;17.23;;;12.80;99.90;;;;;;5091797;28;20161;-50
2022/10/21 02:46:22;;;;;;;30.50;17.25;;;12.80;99.90;;;;;;5091858;28;20729;-51
2022/10/21 02:48:48;;;;;;;29.83;15.45;;;12.70;99.90;;;;;;5073714;28;20169;-50
2022/10/21 02:51:14;;;;;;;28.35;16.20;;;12.80;99.90;;;;;;5091621;28;20219;-50
2022/10/21 02:53:40;;;;;;;31.05;15.30;;;12.80;99.90;;;;;;5091580;28;20231;-50
2022/10/21 02:56:06;;;;;;;28.15;16.15;;;12.80;99.90;;;;;;5093878;28;20260;-50
2022/10/21 02:58:32;;;;;;;33.10;15.93;;;12.80;99.90;;;;;;5095460;28;20216;-50
2022/10/21 03:00:58;;;;;;;24.05;14.80;;;12.80;99.90;;;;;;5095790;28;20161;-51
2022/10/21 03:03:24;;;;;;;28.75;16.10;;;12.80;99.90;;;;;;5095949;28;20252;-50
2022/10/21 03:05:49;;;;;;;27.08;16.15;;;12.80;99.90;;;;;;5095306;28;20204;-50
2022/10/21 03:08:15;;;;;;;26.45;15.80;;;12.80;99.90;;;;;;5095689;28;20169;-50
2022/10/21 03:10:41;;;;;;;26.05;14.88;;;12.80;99.90;;;;;;5095664;28;20173;-50
2022/10/21 03:13:07;;;;;;;25.75;15.32;;;12.80;99.90;;;;;;5095368;28;20201;-50
2022/10/21 03:15:33;;;;;;;26.10;15.65;;;12.80;99.90;;;;;;5095344;28;20668;-50
2022/10/21 03:17:58;;;;;;;30.30;17.38;;;12.80;99.90;;;;;;5095327;28;20164;-50
2022/10/21 03:20:24;;;;;;;31.42;16.20;;;12.90;99.90;;;;;;5095589;28;20537;-50
2022/10/21 03:22:49;;;;;;;30.63;17.08;;;12.80;99.90;;;;;;5095418;28;20199;-50
2022/10/21 03:25:15;;;;;;;28.38;16.20;;;12.90;99.90;;;;;;5094925;28;20248;-51
2022/10/21 03:27:41;;;;;;;32.38;16.70;;;12.80;99.90;;;;;;5095088;28;20632;-50
2022/10/21 03:30:07;;;;;;;32.85;17.40;;;12.90;99.90;;;;;;5095123;28;20302;-50
2022/10/21 03:32:33;;;;;;;33.63;18.27;;;12.80;99.90;;;;;;5095070;28;20161;-50
2022/10/21 03:34:59;;;;;;;29.60;16.75;;;12.70;99.90;;;;;;5094898;28;20173;-50
2022/10/21 03:37:24;;;;;;;34.35;17.13;;;12.80;99.90;;;;;;5095338;28;20161;-50
2022/10/21 03:39:50;;;;;;;31.02;16.73;;;12.80;99.90;;;;;;5094861;28;20571;-51
2022/10/21 03:42:15;;;;;;;29.88;17.02;;;12.80;99.90;;;;;;5094856;28;20633;-50
2022/10/21 03:44:41;;;;;;;33.67;16.70;;;12.80;99.90;;;;;;5094870;28;20274;-50
2022/10/21 03:47:07;;;;;;;34.60;18.17;;;12.80;99.90;;;;;;5094726;28;20256;-52
2022/10/21 03:49:32;;;;;;;32.67;16.98;;;12.80;99.90;;;;;;5094678;28;20161;-50
2022/10/21 03:51:58;;;;;;;30.73;16.38;;;12.80;99.90;;;;;;5094604;28;20177;-50
2022/10/21 03:54:23;;;;;;;33.40;16.90;;;12.80;99.90;;;;;;5094851;28;20188;-51
2022/10/21 03:56:49;;;;;;;37.83;18.08;;;12.80;99.90;;;;;;5094428;28;20201;-51
2022/10/21 03:59:14;;;;;;;31.02;17.67;;;12.90;99.90;;;;;;5094310;28;20283;-51
2022/10/21 04:01:40;;;;;;;31.77;17.48;;;12.90;99.90;;;;;;5094281;28;20173;-50
2022/10/21 04:04:06;;;;;;;31.10;16.88;;;12.80;99.90;;;;;;5094313;28;20195;-50
2022/10/21 04:06:31;;;;;;;32.45;17.45;;;12.80;99.90;;;;;;5075418;28;20203;-50
2022/10/21 04:08:57;;;;;;;32.65;17.55;;;12.80;99.90;;;;;;5075838;28;20197;-51
2022/10/21 04:11:23;;;;;;;28.52;16.40;;;12.90;99.90;;;;;;5094524;28;20186;-50
2022/10/21 04:13:48;;;;;;;30.80;16.15;;;12.90;99.90;;;;;;5094442;28;20193;-50
2022/10/21 04:16:17;;;;;;;33.80;15.90;;;12.90;99.90;;;;;;5094233;28;20248;-50
2022/10/21 04:18:42;;;;;;;30.33;17.58;;;12.90;99.90;;;;;;5076319;28;20640;-50
2022/10/21 04:21:08;;;;;;;33.40;17.50;;;13.00;99.90;;;;;;5094080;28;20173;-50
2022/10/21 04:23:34;;;;;;;32.78;17.58;;;12.90;99.90;;;;;;5094106;28;20176;-51
2022/10/21 04:26:00;;;;;;;37.60;18.08;;;12.90;99.90;;;;;;5094072;28;20266;-50
2022/10/21 04:28:25;;;;;;;31.98;18.67;;;13.00;99.90;;;;;;5094190;28;20562;-50
2022/10/21 04:30:51;;;;;;;32.42;15.50;;;13.00;99.90;;;;;;5094179;28;20169;-50
2022/10/21 04:33:17;;;;;;;31.08;17.17;;;13.00;99.90;;;;;;5093835;28;20252;-50
2022/10/21 04:35:42;;;;;;;36.03;18.65;;;13.00;99.90;;;;;;5075667;28;20185;-50
2022/10/21 04:38:08;;;;;;;35.92;18.58;;;13.10;99.90;;;;;;5093777;28;20181;-50
2022/10/21 04:40:34;;;;;;;37.70;18.20;;;13.10;99.90;;;;;;5093791;28;20525;-50
2022/10/21 04:43:00;;;;;;;29.15;17.15;;;13.10;99.90;;;;;;5093610;28;20165;-51
2022/10/21 04:45:25;;;;;;;42.30;17.65;;;13.10;99.90;;;;;;5093912;28;20211;-51
2022/10/21 04:47:51;;;;;;;34.92;16.05;;;13.90;99.90;;;;;;5094067;28;20169;-51
2022/10/21 04:50:16;;;;;;;26.05;15.43;;;13.10;99.90;;;;;;5093454;28;20624;-50
2022/10/21 04:52:42;;;;;;;26.65;14.75;;;13.10;99.90;;;;;;5093444;28;20583;-50
2022/10/21 04:55:08;;;;;;;25.48;15.73;;;13.20;99.90;;;;;;5093312;28;20180;-50
2022/10/21 04:57:33;;;;;;;30.10;16.08;;;13.10;99.90;;;;;;5093126;28;20176;-50
2022/10/21 04:59:59;;;;;;;32.35;16.55;;;13.20;99.90;;;;;;5093338;28;20172;-50
2022/10/21 05:02:25;;;;;;;31.88;18.20;;;13.10;99.90;;;;;;5093548;28;20180;-50
2022/10/21 05:04:50;;;;;;;34.40;16.98;;;13.10;99.90;;;;;;5093365;28;20232;-51
2022/10/21 05:07:16;;;;;;;32.42;17.45;;;13.10;99.90;;;;;;5093148;28;20166;-56
2022/10/21 05:09:41;;;;;;;35.00;18.75;;;13.10;99.90;;;;;;5093079;28;20178;-51
2022/10/21 05:12:07;;;;;;;36.20;18.58;;;13.20;99.90;;;;;;5093076;28;20169;-50
2022/10/21 05:14:33;;;;;;;29.33;17.63;;;13.20;99.90;;;;;;5092334;28;20161;-51
2022/10/21 05:16:58;;;;;;;36.15;20.30;;;13.10;99.90;;;;;;5092385;28;20252;-50
2022/10/21 05:19:24;;;;;;;29.67;16.95;;;13.20;99.90;;;;;;5092919;28;20170;-51
2022/10/21 05:21:49;;;;;;;28.30;15.13;;;13.20;99.90;;;;;;5092857;28;20170;-51
2022/10/21 05:24:16;;;;;;;26.83;15.25;;;13.20;99.90;;;;;;5092634;28;20153;-51
2022/10/21 05:26:41;;;;;;;22.63;14.07;;;13.20;99.90;;;;;;5092647;28;20197;-50
2022/10/21 05:29:07;;;;;;;24.08;13.15;;;13.20;99.90;;;;;;5074518;28;20645;-50
2022/10/21 05:31:33;;;;;;;22.33;12.43;;;13.20;99.90;;;;;;5092709;28;20165;-50
2022/10/21 05:33:59;;;;;;;25.08;13.45;;;13.20;99.90;;;;;;5092803;28;20161;-51
2022/10/21 05:36:24;;;;;;;28.98;15.43;;;13.20;99.90;;;;;;5074793;28;20161;-50
2022/10/21 05:38:50;;;;;;;33.40;18.45;;;13.20;99.90;;;;;;5092501;28;20668;-50
2022/10/21 05:41:16;;;;;;;15.63;11.38;;;13.10;99.90;;;;;;5092466;28;20162;-51
2022/10/21 05:43:41;;;;;;;26.58;15.43;;;13.20;99.90;;;;;;5092425;28;20167;-51
2022/10/21 05:46:08;;;;;;;20.77;12.25;;;13.10;99.90;;;;;;5092477;28;20303;-51
2022/10/21 05:48:34;;;;;;;18.20;11.35;;;13.10;99.90;;;;;;5074005;28;20530;-50
2022/10/21 05:51:00;;;;;;;18.38;11.57;;;13.20;99.90;;;;;;5092315;28;20184;-51
2022/10/21 05:53:25;;;;;;;21.27;11.48;;;13.20;99.90;;;;;;5092253;28;20244;-51
2022/10/21 05:56:06;;;;;;;17.50;11.02;;;13.20;99.90;;;;;;5092602;28;20208;-50
2022/10/21 05:58:33;;;;;;;18.13;10.90;;;13.20;99.90;;;;;;5091957;28;20213;-51
2022/10/21 06:00:59;;;;;;;22.73;10.75;;;13.20;99.90;;;;;;5092104;28;20200;-50
2022/10/21 06:03:30;;;;;;;17.88;11.82;;;13.30;99.90;;;;;;5092156;28;20169;-51
2022/10/21 06:05:57;;;;;;;19.83;10.32;;;13.20;99.90;;;;;;5092194;28;20209;-51
2022/10/21 06:08:23;;;;;;;19.20;10.98;;;13.30;99.90;;;;;;5092319;28;20625;-52
2022/10/21 06:10:48;;;;;;;18.80;11.32;;;13.30;99.90;;;;;;5091934;28;20265;-52
2022/10/21 06:13:14;;;;;;;21.92;12.18;;;13.20;99.90;;;;;;5091932;28;20173;-52
2022/10/21 06:15:40;;;;;;;22.65;12.27;;;13.20;99.90;;;;;;5091998;28;20165;-50
2022/10/21 06:18:05;;;;;;;25.90;12.40;;;13.20;99.90;;;;;;5091944;28;20214;-51
2022/10/21 06:20:31;;;;;;;26.20;13.75;;;13.20;99.90;;;;;;5091936;28;20684;-51
2022/10/21 06:22:59;;;;;;;25.23;12.63;;;13.20;99.90;;;;;;5091918;28;20161;-50
2022/10/21 06:25:25;;;;;;;23.98;12.50;;;13.20;99.90;;;;;;5092339;28;20263;-50
2022/10/21 06:27:52;;;;;;;15.70;9.98;;;13.20;99.90;;;;;;5073920;28;20558;-50
2022/10/21 06:30:17;;;;;;;27.60;13.20;;;13.20;99.90;;;;;;5091430;28;20203;-50
2022/10/21 06:32:43;;;;;;;16.63;9.80;;;13.30;99.90;;;;;;5091886;28;20169;-50
2022/10/21 06:35:08;;;;;;;20.15;10.60;;;13.20;99.90;;;;;;5091828;28;20223;-50
2022/10/21 06:37:34;;;;;;;38.53;18.63;;;13.20;99.90;;;;;;5091789;28;20166;-50
2022/10/21 06:40:00;;;;;;;38.35;22.48;;;13.30;99.90;;;;;;5091800;28;20171;-50
2022/10/21 06:42:25;;;;;;;37.67;20.65;;;13.40;99.90;;;;;;5091868;28;20262;-50
2022/10/21 06:44:51;;;;;;;62.05;20.45;;;13.30;99.90;;;;;;5091971;28;20660;-51
2022/10/21 06:47:16;;;;;;;45.80;19.83;;;13.30;99.90;;;;;;5091597;28;20165;-51
2022/10/21 06:49:42;;;;;;;20.75;12.55;;;13.40;99.90;;;;;;5091620;28;20503;-51
2022/10/21 06:52:07;;;;;;;25.92;14.70;;;13.40;99.90;;;;;;5091565;28;20688;-51
2022/10/21 06:54:33;;;;;;;34.22;19.33;;;13.40;99.90;;;;;;5091599;28;20165;-52
2022/10/21 06:56:58;;;;;;;23.60;12.95;;;13.40;99.90;;;;;;5073429;28;20548;-52
2022/10/21 06:59:24;;;;;;;15.75;9.38;;;13.40;99.90;;;;;;5091736;28;20221;-51
2022/10/21 07:01:49;;;;;;;11.15;8.00;;;13.40;99.90;;;;;;5091557;28;20245;-51
2022/10/21 07:04:15;;;;;;;12.23;7.88;;;13.50;99.90;;;;;;5091455;28;20204;-51
2022/10/21 07:06:41;;;;;;;16.38;10.07;;;13.40;99.90;;;;;;5091522;28;20169;-51
2022/10/21 07:09:07;;;;;;;20.15;9.48;;;13.40;99.90;;;;;;5091712;28;20173;-51
2022/10/21 07:11:33;;;;;;;13.00;8.57;;;13.50;99.90;;;;;;5091485;28;20629;-52
2022/10/21 07:14:00;;;;;;;12.10;7.35;;;13.50;99.90;;;;;;5091447;28;20169;-50
2022/10/21 07:16:28;;;;;;;15.98;11.07;;;13.50;99.90;;;;;;5091414;28;20291;-50
2022/10/21 07:18:54;;;;;;;25.30;14.65;;;13.50;99.90;;;;;;5091950;28;20181;-51
2022/10/21 07:21:22;;;;;;;15.55;10.73;;;13.60;99.90;;;;;;5091910;28;20173;-51
2022/10/21 07:23:50;;;;;;;20.02;12.85;;;13.60;99.90;;;;;;5091208;28;20177;-50
2022/10/21 07:26:16;;;;;;;20.55;11.55;;;13.70;99.90;;;;;;5091447;28;20205;-50
2022/10/21 07:28:46;;;;;;;13.10;8.90;;;13.60;99.90;;;;;;5091203;28;20181;-50
2022/10/21 07:31:18;;;;;;;15.82;10.43;;;13.60;99.90;;;;;;5091510;28;20197;-50
2022/10/21 07:33:44;;;;;;;17.58;9.52;;;13.70;99.90;;;;;;5091335;28;20259;-50
2022/10/21 07:36:24;;;;;;;13.13;9.63;;;13.70;99.90;;;;;;5091233;28;20197;-50
2022/10/21 07:38:51;;;;;;;10.75;8.82;;;13.70;99.90;;;;;;5091757;28;20161;-50
2022/10/21 07:41:36;;;;;;;14.38;9.43;;;13.80;99.90;;;;;;5091900;28;20169;-50
2022/10/21 07:44:02;;;;;;;14.85;10.45;;;13.70;99.90;;;;;;5094731;28;20184;-50
2022/10/21 07:46:27;;;;;;;13.07;9.07;;;13.80;99.90;;;;;;5094611;28;20214;-50
2022/10/21 07:48:54;;;;;;;14.43;9.45;;;13.80;99.90;;;;;;5095050;28;20596;-50
2022/10/21 07:51:22;;;;;;;14.07;9.70;;;13.70;99.90;;;;;;5094601;28;20180;-50
2022/10/21 07:53:51;;;;;;;12.27;9.60;;;13.80;99.90;;;;;;5094580;28;20219;-50
2022/10/21 07:56:20;;;;;;;18.08;10.23;;;13.80;99.90;;;;;;5094536;28;20525;-50
2022/10/21 07:58:46;;;;;;;18.23;11.13;;;13.80;99.90;;;;;;5094312;28;20247;-50
2022/10/21 08:01:14;;;;;;;16.42;9.20;;;13.80;99.90;;;;;;5094457;28;20161;-50
2022/10/21 08:03:40;;;;;;;19.63;10.07;;;13.80;99.90;;;;;;5094271;28;20601;-50
2022/10/21 08:06:08;;;;;;;17.40;9.68;;;13.90;99.90;;;;;;5094196;28;20300;-51
2022/10/21 08:08:34;;;;;;;20.33;10.48;;;14.00;99.90;;;;;;5094355;28;20176;-51
2022/10/21 08:11:01;;;;;;;14.45;9.18;;;14.00;99.90;;;;;;5093864;28;20195;-51
2022/10/21 08:13:26;;;;;;;18.75;9.43;;;14.00;99.90;;;;;;5093769;28;20165;-50
2022/10/21 08:15:54;;;;;;;19.63;10.43;;;13.90;99.90;;;;;;5094532;28;20636;-50
2022/10/21 08:18:20;;;;;;;16.92;9.75;;;14.20;99.90;;;;;;5093854;28;20200;-50
2022/10/21 08:20:47;;;;;;;18.23;10.88;;;14.00;99.90;;;;;;5093872;28;20209;-51
2022/10/21 08:23:14;;;;;;;15.18;9.20;;;14.00;99.90;;;;;;5094167;28;20162;-51
2022/10/21 08:25:52;;;;;;;13.20;9.23;;;14.00;99.90;;;;;;5093523;28;20532;-51
2022/10/21 08:28:18;;;;;;;14.02;9.40;;;14.10;99.90;;;;;;5094034;28;20157;-51
2022/10/21 08:30:44;;;;;;;14.52;9.27;;;14.10;99.90;;;;;;5093873;28;20169;-50
2022/10/21 08:33:11;;;;;;;14.15;8.95;;;14.00;99.90;;;;;;5093740;28;20166;-51
2022/10/21 08:35:38;;;;;;;15.00;8.73;;;14.00;99.90;;;;;;5093953;28;20169;-50
2022/10/21 08:38:04;;;;;;;13.65;8.32;;;14.10;99.90;;;;;;5093870;28;20244;-51
2022/10/21 08:40:38;;;;;;;16.13;8.40;;;14.00;99.90;;;;;;5075226;28;20261;-50
2022/10/21 08:43:13;;;;;;;14.32;8.27;;;14.00;99.90;;;;;;5093730;28;20223;-51
2022/10/21 08:45:47;;;;;;;13.73;8.10;;;14.10;99.90;;;;;;5093323;28;20201;-50
2022/10/21 08:48:18;;;;;;;15.32;8.55;;;14.10;99.90;;;;;;5093793;28;20601;-50
2022/10/21 08:50:47;;;;;;;14.32;9.40;;;14.10;99.90;;;;;;5092773;28;20279;-51
2022/10/21 08:53:22;;;;;;;14.07;9.15;;;14.00;99.90;;;;;;5092596;28;20154;-51
2022/10/21 08:55:50;;;;;;;20.20;9.20;;;14.10;99.90;;;;;;5092993;28;20169;-50
2022/10/21 08:58:21;;;;;;;13.98;9.00;;;14.10;99.90;;;;;;5075086;28;20213;-51
2022/10/21 09:01:19;;;;;;;15.85;9.57;;;14.10;99.90;;;;;;5092802;28;20633;-51
2022/10/21 09:03:57;;;;;;;15.27;9.60;;;14.20;99.90;;;;;;5092904;28;20166;-51
2022/10/21 09:06:46;;;;;;;14.75;8.73;;;14.10;99.90;;;;;;5093234;28;20204;-51
2022/10/21 09:09:52;;;;;;;17.17;9.20;;;14.10;99.90;;;;;;5074413;28;20193;-50
2022/10/21 09:12:33;;;;;;;12.55;7.70;;;14.10;99.90;;;;;;5092980;28;20210;-51
2022/10/21 09:14:58;;;;;;;11.35;7.05;;;14.20;99.90;;;;;;5092574;28;20173;-50
2022/10/21 09:17:33;;;;;;;11.55;7.03;;;14.30;99.90;;;;;;5092659;28;20169;-51
2022/10/21 09:20:32;;;;;;;13.23;6.30;;;14.40;99.90;;;;;;5092874;28;20180;-50
2022/10/21 09:23:19;;;;;;;13.10;5.32;;;14.50;99.90;;;;;;5092655;28;20191;-51
2022/10/21 09:25:58;;;;;;;7.93;4.72;;;14.50;99.90;;;;;;5092546;28;20201;-50
2022/10/21 09:28:25;;;;;;;7.63;4.55;;;14.60;99.90;;;;;;5092831;28;20176;-50
2022/10/21 09:30:51;;;;;;;15.43;5.60;;;14.60;99.90;;;;;;5092351;28;20166;-50
2022/10/21 09:33:30;;;;;;;9.70;6.35;;;14.60;99.90;;;;;;5074307;28;20671;-51
2022/10/21 09:36:02;;;;;;;8.93;5.75;;;14.50;99.90;;;;;;5092079;28;20161;-50
2022/10/21 09:38:56;;;;;;;9.77;5.60;;;14.50;99.90;;;;;;5092817;28;20169;-50
2022/10/21 09:41:25;;;;;;;8.63;5.40;;;14.50;99.90;;;;;;5092576;28;20192;-50
2022/10/21 09:43:50;;;;;;;8.80;5.38;;;14.50;99.90;;;;;;5092583;28;20633;-51
2022/10/21 09:46:17;;;;;;;10.10;6.05;;;14.50;99.90;;;;;;5092329;28;20208;-50
2022/10/21 09:48:49;;;;;;;12.65;6.10;;;14.60;99.90;;;;;;5092225;28;20165;-50
2022/10/21 09:51:28;;;;;;;8.20;6.72;;;14.60;99.90;;;;;;5092336;28;20694;-50
2022/10/21 09:54:03;;;;;;;8.10;5.30;;;14.50;99.90;;;;;;5092748;28;20222;-51
2022/10/21 09:56:45;;;;;;;6.45;4.90;;;14.60;99.90;;;;;;5092115;28;20169;-51
2022/10/21 09:59:13;;;;;;;5.88;4.18;;;14.60;99.90;;;;;;5091785;28;20209;-50
2022/10/21 10:01:41;;;;;;;7.10;3.65;;;14.70;99.90;;;;;;5092162;28;20177;-50
2022/10/21 10:04:29;;;;;;;8.13;3.80;;;14.70;99.90;;;;;;5091811;28;20177;-51
2022/10/21 10:06:54;;;;;;;11.57;3.72;;;14.80;99.90;;;;;;5091909;28;20208;-51
2022/10/21 10:09:23;;;;;;;6.20;3.97;;;14.70;99.90;;;;;;5074117;28;20568;-52
2022/10/21 10:11:53;;;;;;;8.32;3.80;;;14.60;99.90;;;;;;5091776;28;20197;-52
2022/10/21 10:14:34;;;;;;;5.63;3.88;;;14.80;99.90;;;;;;5092598;28;20169;-51
2022/10/21 10:17:24;;;;;;;6.97;3.25;;;14.70;99.90;;;;;;5092006;28;20161;-52
2022/10/21 10:20:11;;;;;;;5.97;2.80;;;14.60;99.90;;;;;;5083567;28;20177;-52
2022/10/21 10:22:40;;;;;;;6.25;3.42;;;14.80;99.90;;;;;;5091736;28;20165;-51
2022/10/21 10:25:17;;;;;;;8.38;3.10;;;14.80;99.90;;;;;;5091775;28;20201;-52
2022/10/21 10:28:02;;;;;;;4.10;2.92;;;14.80;99.90;;;;;;5091671;28;20167;-52
2022/10/21 10:30:41;;;;;;;9.30;3.65;;;14.80;99.90;;;;;;5091545;28;20173;-51
2022/10/21 10:33:12;;;;;;;5.57;3.05;;;13.40;99.90;;;;;;5091690;28;20169;-51
2022/10/21 10:35:47;;;;;;;5.55;3.35;;;14.80;99.90;;;;;;5091271;28;20207;-51
2022/10/21 10:38:41;;;;;;;7.10;3.40;;;14.90;99.90;;;;;;5091355;28;20152;-52
2022/10/21 10:41:11;;;;;;;6.82;3.50;;;14.90;99.90;;;;;;5069103;28;20185;-52
2022/10/21 10:43:42;;;;;;;7.07;3.20;;;14.90;99.90;;;;;;5091563;28;20161;-52
2022/10/21 10:46:21;;;;;;;7.60;3.65;;;15.00;99.90;;;;;;5091423;28;20205;-52
2022/10/21 10:48:50;;;;;;;12.73;4.47;;;15.00;99.90;;;;;;5091550;28;20188;-51
2022/10/21 10:51:29;;;;;;;11.48;5.40;;;15.10;99.90;;;;;;5091401;28;20203;-51
2022/10/21 10:54:05;;;;;;;7.30;4.15;;;15.10;99.90;;;;;;5091876;28;20165;-51
2022/10/21 10:56:40;;;;;;;9.77;4.68;;;15.10;99.90;;;;;;5091329;28;20521;-52
2022/10/21 10:59:24;;;;;;;9.60;4.20;;;15.10;99.90;;;;;;5090975;28;20244;-51
2022/10/21 11:01:56;;;;;;;7.95;3.63;;;15.20;99.90;;;;;;5091857;28;20161;-52
2022/10/21 11:04:37;;;;;;;7.90;4.00;;;15.20;99.90;;;;;;5091707;28;20169;-51
2022/10/21 11:07:20;;;;;;;6.57;3.72;;;15.50;99.90;;;;;;5091342;28;20173;-51
2022/10/21 11:09:46;;;;;;;14.38;3.03;;;15.50;99.90;;;;;;5091084;28;20161;-51
2022/10/21 11:12:22;;;;;;;7.43;3.13;;;15.60;99.90;;;;;;5091490;28;20261;-51
2022/10/21 11:14:53;;;;;;;6.55;2.80;;;15.60;99.90;;;;;;5091394;28;20584;-51
2022/10/21 11:17:25;;;;;;;6.75;3.00;;;15.80;99.90;;;;;;5093927;28;20690;-51
2022/10/21 11:19:57;;;;;;;7.15;3.45;;;15.80;99.90;;;;;;5077268;28;20177;-51
2022/10/21 11:22:54;;;;;;;11.13;3.55;;;16.00;99.90;;;;;;5095829;28;20173;-52
2022/10/21 11:25:42;;;;;;;4.65;3.20;;;16.10;99.90;;;;;;5087014;28;20217;-51
2022/10/21 11:28:20;;;;;;;9.38;3.13;;;16.20;99.90;;;;;;5095180;28;20169;-51
2022/10/21 11:31:07;;;;;;;5.35;2.67;;;16.50;99.90;;;;;;5095250;28;20165;-51
2022/10/21 11:33:58;;;;;;;7.60;2.40;;;16.60;99.90;;;;;;5095299;28;20177;-51
2022/10/21 11:36:32;;;;;;;5.70;2.00;;;16.60;99.90;;;;;;5095255;28;20173;-51
2022/10/21 11:39:37;;;;;;;4.95;2.63;;;16.70;99.90;;;;;;5094802;28;20671;-51
2022/10/21 11:42:18;;;;;;;5.35;2.30;;;16.90;99.90;;;;;;5094344;28;20209;-51
2022/10/21 11:45:06;;;;;;;3.17;2.10;;;17.00;99.90;;;;;;5094747;28;20246;-50
2022/10/21 11:47:55;;;;;;;4.85;2.50;;;17.10;99.90;;;;;;5094692;28;20166;-51
2022/10/21 11:50:33;;;;;;;4.60;2.38;;;17.40;99.90;;;;;;5094996;28;20513;-50
2022/10/21 11:53:27;;;;;;;4.38;2.97;;;17.70;99.90;;;;;;5094120;28;20248;-50
2022/10/21 11:55:58;;;;;;;6.60;2.55;;;18.00;99.90;;;;;;5094593;28;20553;-50
2022/10/21 11:58:45;;;;;;;6.80;2.40;;;18.10;99.90;;;;;;5093967;28;20576;-50
2022/10/21 12:01:13;;;;;;;4.22;2.33;;;18.30;99.90;;;;;;5094433;28;20625;-50
2022/10/21 12:03:39;;;;;;;7.53;2.70;;;18.40;99.90;;;;;;5094666;28;20250;-50
2022/10/21 12:06:19;;;;;;;5.50;2.67;;;18.40;99.90;;;;;;5094308;28;20247;-50
2022/10/21 12:09:05;;;;;;;3.72;2.03;;;18.50;99.90;;;;;;5094448;28;20154;-50
2022/10/21 12:11:40;;;;;;;6.10;2.20;;;18.50;99.90;;;;;;5094318;28;20173;-49
2022/10/21 12:14:25;;;;;;;4.03;2.83;;;18.40;99.90;;;;;;5076215;28;20197;-50
2022/10/21 12:16:54;;;;;;;7.53;3.63;;;18.10;99.90;;;;;;5094563;28;20207;-50
2022/10/21 12:19:23;;;;;;;4.28;2.15;;;17.90;99.90;;;;;;5094417;28;20168;-50
2022/10/21 12:21:49;;;;;;;8.80;2.85;;;17.90;99.90;;;;;;5094678;28;20173;-50
2022/10/21 12:24:29;;;;;;;6.85;2.20;;;17.90;99.90;;;;;;5093903;28;20168;-50
2022/10/21 12:27:34;;;;;;;6.85;2.55;;;17.80;99.90;;;;;;5094186;28;20177;-49
2022/10/21 12:30:19;;;;;;;6.00;2.92;;;18.00;99.90;;;;;;5093843;28;20173;-49
2022/10/21 12:33:06;;;;;;;6.40;3.10;;;18.00;99.90;;;;;;5093825;28;20651;-52
2022/10/21 12:35:53;;;;;;;9.02;4.90;;;17.80;99.90;;;;;;5093740;28;20158;-49
2022/10/21 12:38:21;;;;;;;5.18;2.80;;;17.80;99.90;;;;;;5094391;28;20200;-51
2022/10/21 12:40:48;;;;;;;4.00;2.70;;;17.70;99.90;;;;;;5093828;28;20199;-52
2022/10/21 12:43:18;;;;;;;5.50;2.53;;;17.60;99.90;;;;;;5092486;28;20171;-50
2022/10/21 12:45:46;;;;;;;5.35;3.60;;;17.70;99.90;;;;;;5093340;28;20271;-50
2022/10/21 12:48:32;;;;;;;10.35;4.03;;;17.70;99.90;;;;;;5093088;28;20180;-50
2022/10/21 12:51:02;;;;;;;7.72;3.17;;;17.70;99.90;;;;;;5093501;28;20578;-50
2022/10/21 12:53:47;;;;;;;4.93;3.58;;;17.50;99.90;;;;;;5093090;28;20169;-50